createdAt,value
2018-08-20T00:02:50.259Z,20.10
2018-08-20T00:07:33.999Z,20.00
2018-08-20T00:12:18.773Z,20.10
2018-08-20T00:17:02.617Z,20.00
2018-08-20T00:21:46.244Z,20.00
2018-08-20T00:26:29.964Z,20.00
2018-08-20T00:31:15.104Z,20.10
2018-08-20T00:35:58.887Z,20.30
2018-08-20T00:40:43.000Z,20.40
2018-08-20T00:45:26.723Z,20.50
2018-08-20T00:50:10.782Z,20.40
2018-08-20T00:54:54.559Z,20.10
2018-08-20T00:59:38.339Z,20.00
2018-08-20T01:04:22.057Z,19.90
2018-08-20T01:09:07.053Z,19.90
2018-08-20T01:13:50.963Z,20.00
2018-08-20T01:18:34.788Z,20.00
2018-08-20T01:23:18.506Z,19.90
2018-08-20T01:28:02.145Z,20.00
2018-08-20T01:32:46.095Z,19.70
2018-08-20T01:37:29.789Z,19.90
2018-08-20T01:42:14.056Z,19.70
2018-08-20T01:46:57.746Z,19.70
2018-08-20T01:51:41.445Z,19.70
2018-08-20T01:56:25.111Z,19.80
2018-08-20T02:01:08.959Z,20.00
2018-08-20T02:05:52.600Z,20.00
2018-08-20T02:10:36.375Z,20.10
2018-08-20T02:15:20.125Z,20.10
2018-08-20T02:20:04.051Z,20.20
2018-08-20T02:24:47.898Z,20.10
2018-08-20T02:29:31.557Z,20.10
2018-08-20T02:34:15.283Z,20.10
2018-08-20T02:39:00.117Z,19.90
2018-08-20T02:43:43.807Z,20.00
2018-08-20T02:48:27.512Z,19.90
2018-08-20T02:53:11.218Z,19.90
2018-08-20T02:57:54.875Z,19.90
2018-08-20T03:02:40.559Z,19.80
2018-08-20T03:07:24.559Z,19.70
2018-08-20T03:12:08.412Z,19.70
2018-08-20T03:16:52.076Z,19.60
2018-08-20T03:21:35.951Z,19.50
2018-08-20T03:26:19.711Z,19.50
2018-08-20T03:31:03.507Z,19.50
2018-08-20T03:35:47.317Z,19.50
2018-08-20T03:40:31.481Z,19.50
2018-08-20T03:45:15.223Z,19.30
2018-08-20T03:49:59.063Z,19.20
2018-08-20T03:54:42.803Z,19.00
2018-08-20T03:59:35.249Z,18.70
2018-08-20T04:04:19.043Z,18.60
2018-08-20T04:09:03.043Z,18.60
2018-08-20T04:13:46.711Z,18.60
2018-08-20T04:18:30.436Z,18.40
2018-08-20T04:23:14.079Z,18.40
2018-08-20T04:27:57.772Z,18.50
2018-08-20T04:32:41.517Z,18.60
2018-08-20T04:37:25.149Z,18.70
2018-08-20T04:42:08.910Z,18.80
2018-08-20T04:46:52.688Z,18.80
2018-08-20T04:51:36.741Z,18.90
2018-08-20T04:56:20.515Z,19.20
2018-08-20T05:01:06.841Z,19.30
2018-08-20T05:05:50.834Z,19.40
2018-08-20T05:10:35.545Z,19.50
2018-08-20T05:15:22.725Z,19.70
2018-08-20T05:20:07.413Z,19.90
2018-08-20T05:24:52.015Z,20.10
2018-08-20T05:29:35.777Z,20.30
2018-08-20T05:34:19.679Z,20.50
2018-08-20T05:39:03.771Z,20.70
2018-08-20T05:43:47.776Z,20.90
2018-08-20T05:48:31.813Z,21.10
2018-08-20T05:53:15.843Z,21.20
2018-08-20T05:57:59.622Z,21.40
2018-08-20T06:02:43.557Z,21.60
2018-08-20T06:07:27.441Z,22.00
2018-08-20T06:12:11.423Z,22.30
2018-08-20T06:16:55.173Z,22.40
2018-08-20T06:21:38.881Z,22.70
2018-08-20T06:26:22.684Z,22.90
2018-08-20T06:31:06.657Z,23.20
2018-08-20T06:35:50.378Z,23.30
2018-08-20T06:40:34.214Z,23.50
2018-08-20T06:45:18.227Z,23.70
2018-08-20T06:50:02.933Z,23.70
2018-08-20T06:54:46.647Z,23.70
2018-08-20T06:59:30.350Z,23.90
2018-08-20T07:04:14.044Z,23.90
2018-08-20T07:08:57.905Z,24.10
2018-08-20T07:13:41.743Z,24.40
2018-08-20T07:18:25.549Z,24.80
2018-08-20T07:23:09.284Z,25.10
2018-08-20T07:27:53.035Z,25.30
2018-08-20T07:32:36.769Z,25.70
2018-08-20T07:37:20.583Z,25.60
2018-08-20T07:42:04.377Z,25.60
2018-08-20T07:46:48.395Z,25.60
2018-08-20T07:51:32.130Z,26.00
2018-08-20T07:56:16.218Z,25.80
2018-08-20T08:00:59.921Z,26.00
2018-08-20T08:05:44.573Z,26.00
2018-08-20T08:10:32.369Z,26.60
2018-08-20T08:15:16.551Z,26.40
2018-08-20T08:20:00.386Z,26.30
2018-08-20T08:24:44.194Z,26.50
2018-08-20T08:29:27.913Z,27.10
2018-08-20T08:34:11.747Z,27.40
2018-08-20T08:38:55.515Z,27.50
2018-08-20T08:43:39.281Z,27.30
2018-08-20T08:48:22.987Z,27.30
2018-08-20T08:53:07.153Z,27.10
2018-08-20T08:57:50.832Z,27.50
2018-08-20T09:02:34.562Z,27.80
2018-08-20T09:07:18.302Z,28.00
2018-08-20T09:12:02.021Z,28.00
2018-08-20T09:16:45.793Z,28.40
2018-08-20T09:21:29.711Z,28.30
2018-08-20T09:26:13.442Z,28.30
2018-08-20T09:30:57.190Z,28.60
2018-08-20T09:35:40.919Z,28.40
2018-08-20T09:40:24.637Z,28.90
2018-08-20T09:45:08.575Z,29.20
2018-08-20T09:49:52.359Z,29.40
2018-08-20T09:54:36.159Z,29.30
2018-08-20T09:59:20.083Z,29.20
2018-08-20T10:04:03.883Z,29.20
2018-08-20T10:08:47.652Z,28.80
2018-08-20T10:13:31.359Z,29.30
2018-08-20T10:18:15.040Z,29.10
2018-08-20T10:22:58.883Z,29.20
2018-08-20T10:27:42.614Z,29.20
2018-08-20T10:32:26.350Z,29.40
2018-08-20T10:37:10.044Z,29.20
2018-08-20T10:41:53.836Z,29.30
2018-08-20T10:46:38.620Z,29.40
2018-08-20T10:51:22.266Z,29.50
2018-08-20T10:56:06.094Z,29.90
2018-08-20T11:00:49.823Z,29.80
2018-08-20T11:05:33.565Z,29.70
2018-08-20T11:10:17.306Z,29.70
2018-08-20T11:15:01.014Z,29.70
2018-08-20T11:19:44.878Z,30.10
2018-08-20T11:24:28.665Z,29.40
2018-08-20T11:29:12.379Z,28.80
2018-08-20T11:33:56.623Z,29.30
2018-08-20T11:38:40.358Z,29.90
2018-08-20T11:43:24.118Z,30.20
2018-08-20T11:48:08.169Z,29.30
2018-08-20T11:52:52.004Z,30.40
2018-08-20T11:57:35.893Z,31.10
2018-08-20T12:02:19.689Z,31.20
2018-08-20T12:07:03.381Z,31.60
2018-08-20T12:11:46.989Z,31.10
2018-08-20T12:16:30.783Z,30.60
2018-08-20T12:21:14.554Z,30.70
2018-08-20T12:25:58.569Z,30.80
2018-08-20T12:30:42.343Z,30.40
2018-08-20T12:35:26.137Z,30.30
2018-08-20T12:40:09.999Z,30.10
2018-08-20T12:44:53.876Z,30.00
2018-08-20T12:49:37.599Z,30.20
2018-08-20T12:54:21.344Z,30.00
2018-08-20T12:59:05.015Z,29.80
2018-08-20T13:03:49.702Z,30.00
2018-08-20T13:08:33.587Z,30.70
2018-08-20T13:13:18.005Z,30.40
2018-08-20T13:18:01.772Z,30.40
2018-08-20T13:22:45.498Z,30.00
2018-08-20T13:27:29.509Z,29.20
2018-08-20T13:32:13.394Z,29.80
2018-08-20T13:36:57.308Z,29.30
2018-08-20T13:41:41.084Z,28.60
2018-08-20T13:46:24.898Z,28.40
2018-08-20T13:51:08.567Z,28.70
2018-08-20T13:55:52.292Z,29.10
2018-08-20T14:00:36.042Z,28.60
2018-08-20T14:05:21.006Z,28.60
2018-08-20T14:10:05.247Z,28.10
2018-08-20T14:14:48.963Z,28.30
2018-08-20T14:19:32.787Z,28.50
2018-08-20T14:24:16.517Z,28.50
2018-08-20T14:29:01.190Z,29.00
2018-08-20T14:33:45.897Z,29.50
2018-08-20T14:38:29.635Z,29.80
2018-08-20T14:43:13.513Z,29.40
2018-08-20T14:47:57.278Z,29.60
2018-08-20T14:52:41.202Z,28.80
2018-08-20T14:57:24.987Z,28.40
2018-08-20T15:02:08.886Z,27.70
2018-08-20T15:07:01.015Z,28.00
2018-08-20T15:11:44.751Z,27.60
2018-08-20T15:16:28.642Z,27.40
2018-08-20T15:21:12.925Z,27.50
2018-08-20T15:25:56.715Z,27.00
2018-08-20T15:30:40.496Z,27.00
2018-08-20T15:35:24.214Z,26.80
2018-08-20T15:40:08.114Z,26.50
2018-08-20T15:44:51.848Z,26.30
2018-08-20T15:49:35.661Z,26.20
2018-08-20T15:54:19.395Z,26.20
2018-08-20T15:59:03.087Z,25.90
2018-08-20T16:03:46.987Z,25.70
2018-08-20T16:08:30.748Z,25.50
2018-08-20T16:13:14.536Z,25.30
2018-08-20T16:17:58.262Z,25.10
2018-08-20T16:22:42.220Z,24.80
2018-08-20T16:27:26.228Z,24.80
2018-08-20T16:32:09.989Z,24.80
2018-08-20T16:36:53.760Z,24.90
2018-08-20T16:41:37.478Z,25.00
2018-08-20T16:46:21.244Z,24.80
2018-08-20T16:51:05.152Z,24.70
2018-08-20T16:55:49.005Z,24.70
2018-08-20T17:00:32.922Z,24.60
2018-08-20T17:05:16.747Z,24.50
2018-08-20T17:10:00.382Z,24.60
2018-08-20T17:14:44.364Z,24.60
2018-08-20T17:19:28.175Z,24.50
2018-08-20T17:24:12.051Z,24.30
2018-08-20T17:28:59.611Z,24.10
2018-08-20T17:33:43.302Z,24.00
2018-08-20T17:38:27.296Z,23.90
2018-08-20T17:43:11.125Z,23.80
2018-08-20T17:47:55.223Z,23.70
2018-08-20T17:52:41.277Z,23.60
2018-08-20T17:57:25.302Z,23.30
2018-08-20T18:02:13.427Z,23.10
2018-08-20T18:06:57.120Z,23.10
2018-08-20T18:11:59.241Z,22.80
2018-08-20T18:16:43.860Z,22.70
2018-08-20T18:21:27.775Z,22.60
2018-08-20T18:26:11.527Z,22.50
2018-08-20T18:31:18.796Z,22.40
2018-08-20T18:36:07.184Z,22.40
2018-08-20T18:40:51.691Z,22.40
2018-08-20T18:45:35.804Z,22.30
2018-08-20T18:50:19.631Z,22.10
2018-08-20T18:55:03.518Z,21.90
2018-08-20T18:59:47.865Z,21.80
2018-08-20T19:04:47.175Z,21.50
2018-08-20T19:09:31.132Z,21.20
2018-08-20T19:14:15.077Z,20.80
2018-08-20T19:18:59.172Z,20.60
2018-08-20T19:23:43.095Z,20.50
2018-08-20T19:28:30.143Z,20.20
2018-08-20T19:33:20.216Z,19.90
2018-08-20T19:38:06.265Z,19.60
2018-08-20T19:42:52.848Z,19.50
2018-08-20T19:47:37.110Z,19.30
2018-08-20T19:52:21.758Z,19.50
2018-08-20T19:57:07.173Z,19.70
2018-08-20T20:01:52.335Z,19.90
2018-08-20T20:06:37.174Z,20.10
2018-08-20T20:11:26.690Z,20.30
2018-08-20T20:16:13.320Z,20.50
2018-08-20T20:25:54.608Z,20.80
2018-08-20T20:30:38.603Z,20.90
2018-08-20T20:35:22.808Z,21.00
2018-08-20T20:40:07.699Z,21.00
2018-08-20T20:44:52.612Z,21.00
2018-08-20T20:49:36.662Z,21.10
2018-08-20T20:54:21.124Z,21.10
2018-08-20T20:59:05.286Z,21.00
2018-08-20T21:03:50.057Z,21.00
2018-08-20T21:08:40.662Z,21.10
2018-08-20T21:13:24.900Z,21.00
2018-08-20T21:18:09.809Z,20.80
2018-08-20T21:22:53.886Z,21.00
2018-08-20T21:27:38.056Z,21.00
2018-08-20T21:32:21.966Z,21.10
2018-08-20T21:37:06.155Z,21.10
2018-08-20T21:41:50.878Z,21.00
2018-08-20T21:46:34.796Z,21.00
2018-08-20T21:51:27.099Z,21.00
2018-08-20T21:56:12.332Z,21.00
2018-08-20T22:00:57.047Z,20.90
2018-08-20T22:05:41.689Z,20.90
2018-08-20T22:10:27.458Z,20.90
2018-08-20T22:15:11.648Z,20.90
2018-08-20T22:19:55.383Z,20.80
2018-08-20T22:24:40.965Z,20.80
2018-08-20T22:29:26.219Z,20.80
2018-08-20T22:34:10.537Z,20.80
2018-08-20T22:38:58.235Z,20.70
2018-08-20T22:43:42.189Z,20.80
2018-08-20T22:48:26.047Z,20.70
2018-08-20T22:53:10.302Z,20.80
2018-08-20T22:58:09.941Z,20.70
2018-08-20T23:02:55.421Z,20.70
2018-08-20T23:07:39.159Z,20.60
2018-08-20T23:12:27.031Z,20.70
2018-08-20T23:17:10.689Z,20.60
2018-08-20T23:21:54.841Z,20.50
2018-08-20T23:26:38.737Z,20.50
2018-08-20T23:31:22.447Z,20.50
2018-08-20T23:36:06.297Z,20.50
2018-08-20T23:40:50.033Z,20.60
2018-08-20T23:45:33.811Z,20.60
2018-08-20T23:50:17.621Z,20.50
2018-08-20T23:55:01.338Z,20.40
2018-08-20T23:59:45.041Z,20.40
